Milnesand, New Mexico
Current Conditions -  °F | °C
As of 8:58 AM on Sunday 21 Dec 2014 (Local Time) from KCVS Reporting Station
Clear Clear  
Wind Chill: 36°   Ceiling: Unl
Heat Index: 44°   Visibility: 10mi
Dew Point: 24°   Wind: 18mph
Humidity: 46%   Direction: 270°W
Pressure: 29.85"   Gusts: NA
Location:  33.64°N, 103.34°W
Report Text: KCVS 211558Z AUTO 27016KT 10SM CLR 07/M04 A2985 RMK AO2 SLP105 T00671042 $
Loading
Personal Weather Stations






























Interactive Weather Map New forecast layout! Learn more

10-Day Weather Forecast

Advertisements
Track Severe Weather on mobile